sensor_id;sensor_type;location;lat;lon;timestamp;temperature;humidity
73568;SHT30;61847;54.994;73.310;2022-09-16T00:00:59;8.35;74.92
73568;SHT30;61847;54.994;73.310;2022-09-16T00:03:25;8.41;75.02
73568;SHT30;61847;54.994;73.310;2022-09-16T00:05:52;8.38;75.70
73568;SHT30;61847;54.994;73.310;2022-09-16T00:08:19;8.37;75.86
73568;SHT30;61847;54.994;73.310;2022-09-16T00:10:46;8.38;76.09
73568;SHT30;61847;54.994;73.310;2022-09-16T00:13:16;8.38;76.29
73568;SHT30;61847;54.994;73.310;2022-09-16T00:15:44;8.35;76.75
73568;SHT30;61847;54.994;73.310;2022-09-16T00:18:21;8.38;76.67
73568;SHT30;61847;54.994;73.310;2022-09-16T00:20:57;8.42;76.46
73568;SHT30;61847;54.994;73.310;2022-09-16T00:26:43;8.37;76.83
73568;SHT30;61847;54.994;73.310;2022-09-16T00:29:09;8.33;77.09
73568;SHT30;61847;54.994;73.310;2022-09-16T00:31:36;8.30;77.33
73568;SHT30;61847;54.994;73.310;2022-09-16T00:34:02;8.20;77.63
73568;SHT30;61847;54.994;73.310;2022-09-16T00:36:28;8.18;77.83
73568;SHT30;61847;54.994;73.310;2022-09-16T00:38:55;8.14;77.96
73568;SHT30;61847;54.994;73.310;2022-09-16T00:41:27;8.13;78.23
73568;SHT30;61847;54.994;73.310;2022-09-16T00:44:03;8.11;78.26
73568;SHT30;61847;54.994;73.310;2022-09-16T00:46:37;8.08;78.40
73568;SHT30;61847;54.994;73.310;2022-09-16T00:49:29;8.08;79.16
73568;SHT30;61847;54.994;73.310;2022-09-16T00:51:59;8.03;78.69
73568;SHT30;61847;54.994;73.310;2022-09-16T00:54:27;8.00;78.94
73568;SHT30;61847;54.994;73.310;2022-09-16T00:56:59;7.97;79.25
73568;SHT30;61847;54.994;73.310;2022-09-16T00:59:38;8.00;79.18
73568;SHT30;61847;54.994;73.310;2022-09-16T01:02:11;8.06;79.51
73568;SHT30;61847;54.994;73.310;2022-09-16T01:07:11;8.11;78.75
73568;SHT30;61847;54.994;73.310;2022-09-16T01:09:38;8.13;77.85
73568;SHT30;61847;54.994;73.310;2022-09-16T01:12:04;8.16;78.18
73568;SHT30;61847;54.994;73.310;2022-09-16T01:14:31;8.17;77.20
73568;SHT30;61847;54.994;73.310;2022-09-16T01:32:03;8.24;75.21
73568;SHT30;61847;54.994;73.310;2022-09-16T01:37:39;8.25;75.11
73568;SHT30;61847;54.994;73.310;2022-09-16T01:40:14;8.16;75.57
73568;SHT30;61847;54.994;73.310;2022-09-16T01:42:59;8.07;76.19
73568;SHT30;61847;54.994;73.310;2022-09-16T01:45:32;8.06;76.34
73568;SHT30;61847;54.994;73.310;2022-09-16T01:50:55;8.13;76.55
73568;SHT30;61847;54.994;73.310;2022-09-16T01:53:33;8.18;76.27
73568;SHT30;61847;54.994;73.310;2022-09-16T02:01:59;8.23;76.61
73568;SHT30;61847;54.994;73.310;2022-09-16T02:04:34;8.27;76.39
73568;SHT30;61847;54.994;73.310;2022-09-16T02:07:04;8.24;76.76
73568;SHT30;61847;54.994;73.310;2022-09-16T02:09:38;8.33;76.95
73568;SHT30;61847;54.994;73.310;2022-09-16T02:12:15;8.35;77.40
73568;SHT30;61847;54.994;73.310;2022-09-16T02:14:51;8.45;77.65
73568;SHT30;61847;54.994;73.310;2022-09-16T02:17:22;8.48;76.99
73568;SHT30;61847;54.994;73.310;2022-09-16T02:19:59;8.55;76.94
73568;SHT30;61847;54.994;73.310;2022-09-16T02:22:47;8.65;77.07
73568;SHT30;61847;54.994;73.310;2022-09-16T02:25:14;8.71;76.88
73568;SHT30;61847;54.994;73.310;2022-09-16T02:27:53;8.83;76.38
73568;SHT30;61847;54.994;73.310;2022-09-16T02:30:21;8.93;76.24
73568;SHT30;61847;54.994;73.310;2022-09-16T02:32:53;9.03;75.82
73568;SHT30;61847;54.994;73.310;2022-09-16T02:35:21;9.13;75.47
73568;SHT30;61847;54.994;73.310;2022-09-16T02:37:54;9.21;75.70
73568;SHT30;61847;54.994;73.310;2022-09-16T02:40:26;9.31;75.50
73568;SHT30;61847;54.994;73.310;2022-09-16T02:42:58;9.40;75.48
73568;SHT30;61847;54.994;73.310;2022-09-16T02:48:34;9.54;75.32
73568;SHT30;61847;54.994;73.310;2022-09-16T02:53:49;9.69;75.34
73568;SHT30;61847;54.994;73.310;2022-09-16T02:56:31;9.78;75.22
73568;SHT30;61847;54.994;73.310;2022-09-16T02:58:59;9.86;75.57
73568;SHT30;61847;54.994;73.310;2022-09-16T03:01:33;9.96;75.46
73568;SHT30;61847;54.994;73.310;2022-09-16T03:04:02;10.06;75.43
73568;SHT30;61847;54.994;73.310;2022-09-16T03:06:29;10.13;75.43
73568;SHT30;61847;54.994;73.310;2022-09-16T03:09:03;10.23;75.02
73568;SHT30;61847;54.994;73.310;2022-09-16T03:11:43;10.30;74.89
73568;SHT30;61847;54.994;73.310;2022-09-16T03:14:36;10.37;74.06
73568;SHT30;61847;54.994;73.310;2022-09-16T03:17:28;10.45;72.92
73568;SHT30;61847;54.994;73.310;2022-09-16T03:22:53;10.61;72.06
73568;SHT30;61847;54.994;73.310;2022-09-16T03:31:31;10.84;71.85
73568;SHT30;61847;54.994;73.310;2022-09-16T03:34:19;10.89;71.54
73568;SHT30;61847;54.994;73.310;2022-09-16T03:36:53;10.95;70.65
73568;SHT30;61847;54.994;73.310;2022-09-16T03:39:21;11.01;70.06
73568;SHT30;61847;54.994;73.310;2022-09-16T03:42:01;11.08;69.47
73568;SHT30;61847;54.994;73.310;2022-09-16T03:44:32;11.18;69.05
73568;SHT30;61847;54.994;73.310;2022-09-16T03:47:07;11.22;68.58
73568;SHT30;61847;54.994;73.310;2022-09-16T03:49:34;11.26;68.38
73568;SHT30;61847;54.994;73.310;2022-09-16T03:52:00;11.33;68.18
73568;SHT30;61847;54.994;73.310;2022-09-16T03:54:32;11.46;68.47
73568;SHT30;61847;54.994;73.310;2022-09-16T03:56:58;11.50;68.07
73568;SHT30;61847;54.994;73.310;2022-09-16T03:59:30;11.56;68.01
73568;SHT30;61847;54.994;73.310;2022-09-16T04:01:59;11.64;67.74
73568;SHT30;61847;54.994;73.310;2022-09-16T04:04:36;11.73;67.54
73568;SHT30;61847;54.994;73.310;2022-09-16T04:07:02;11.80;67.33
73568;SHT30;61847;54.994;73.310;2022-09-16T04:09:30;11.87;67.06
73568;SHT30;61847;54.994;73.310;2022-09-16T04:12:00;11.89;66.87
73568;SHT30;61847;54.994;73.310;2022-09-16T04:14:39;11.95;66.79
73568;SHT30;61847;54.994;73.310;2022-09-16T04:17:11;12.01;66.45
73568;SHT30;61847;54.994;73.310;2022-09-16T04:19:37;12.08;66.23
73568;SHT30;61847;54.994;73.310;2022-09-16T04:22:03;12.14;66.18
73568;SHT30;61847;54.994;73.310;2022-09-16T04:24:29;12.22;66.76
73568;SHT30;61847;54.994;73.310;2022-09-16T04:27:06;12.30;66.46
73568;SHT30;61847;54.994;73.310;2022-09-16T04:29:42;12.37;66.32
73568;SHT30;61847;54.994;73.310;2022-09-16T04:32:08;12.42;66.04
73568;SHT30;61847;54.994;73.310;2022-09-16T04:34:34;12.46;65.72
73568;SHT30;61847;54.994;73.310;2022-09-16T04:37:06;12.52;65.03
73568;SHT30;61847;54.994;73.310;2022-09-16T04:39:32;12.61;64.37
73568;SHT30;61847;54.994;73.310;2022-09-16T04:42:01;12.68;64.06
73568;SHT30;61847;54.994;73.310;2022-09-16T04:44:30;12.68;63.22
73568;SHT30;61847;54.994;73.310;2022-09-16T04:46:56;12.76;62.70
73568;SHT30;61847;54.994;73.310;2022-09-16T04:49:22;12.84;62.56
73568;SHT30;61847;54.994;73.310;2022-09-16T04:51:49;12.88;62.44
73568;SHT30;61847;54.994;73.310;2022-09-16T04:54:17;12.91;62.25
73568;SHT30;61847;54.994;73.310;2022-09-16T04:56:43;12.98;61.85
73568;SHT30;61847;54.994;73.310;2022-09-16T04:59:09;13.11;61.93
73568;SHT30;61847;54.994;73.310;2022-09-16T05:01:37;13.14;61.10
73568;SHT30;61847;54.994;73.310;2022-09-16T05:04:05;13.19;60.85
73568;SHT30;61847;54.994;73.310;2022-09-16T05:06:34;13.18;60.67
73568;SHT30;61847;54.994;73.310;2022-09-16T05:09:01;13.19;60.11
73568;SHT30;61847;54.994;73.310;2022-09-16T05:11:38;13.23;59.93
73568;SHT30;61847;54.994;73.310;2022-09-16T05:14:07;13.28;59.84
73568;SHT30;61847;54.994;73.310;2022-09-16T05:16:35;13.34;59.31
73568;SHT30;61847;54.994;73.310;2022-09-16T05:19:02;13.36;58.82
73568;SHT30;61847;54.994;73.310;2022-09-16T05:21:32;13.49;58.47
73568;SHT30;61847;54.994;73.310;2022-09-16T05:24:00;13.53;57.78
73568;SHT30;61847;54.994;73.310;2022-09-16T05:26:29;13.56;57.53
73568;SHT30;61847;54.994;73.310;2022-09-16T05:28:59;13.62;56.89
73568;SHT30;61847;54.994;73.310;2022-09-16T05:31:28;13.63;56.01
73568;SHT30;61847;54.994;73.310;2022-09-16T05:36:33;13.81;54.53
73568;SHT30;61847;54.994;73.310;2022-09-16T05:39:02;13.90;53.86
73568;SHT30;61847;54.994;73.310;2022-09-16T05:41:28;13.96;53.27
73568;SHT30;61847;54.994;73.310;2022-09-16T05:43:57;13.96;53.39
73568;SHT30;61847;54.994;73.310;2022-09-16T05:46:24;13.96;53.65
73568;SHT30;61847;54.994;73.310;2022-09-16T05:48:52;13.98;53.34
73568;SHT30;61847;54.994;73.310;2022-09-16T05:51:20;14.16;51.11
73568;SHT30;61847;54.994;73.310;2022-09-16T05:53:48;14.22;50.78
73568;SHT30;61847;54.994;73.310;2022-09-16T05:56:17;14.31;50.34
73568;SHT30;61847;54.994;73.310;2022-09-16T05:58:50;14.32;51.39
73568;SHT30;61847;54.994;73.310;2022-09-16T06:01:20;14.31;51.20
73568;SHT30;61847;54.994;73.310;2022-09-16T06:03:48;14.34;50.91
73568;SHT30;61847;54.994;73.310;2022-09-16T06:06:28;14.35;50.33
73568;SHT30;61847;54.994;73.310;2022-09-16T06:09:00;14.42;50.92
73568;SHT30;61847;54.994;73.310;2022-09-16T06:11:28;14.45;50.85
73568;SHT30;61847;54.994;73.310;2022-09-16T06:13:58;14.51;50.15
73568;SHT30;61847;54.994;73.310;2022-09-16T06:16:27;14.52;50.52
73568;SHT30;61847;54.994;73.310;2022-09-16T06:19:05;14.58;50.18
73568;SHT30;61847;54.994;73.310;2022-09-16T06:21:36;14.65;50.38
73568;SHT30;61847;54.994;73.310;2022-09-16T06:24:08;14.79;49.21
73568;SHT30;61847;54.994;73.310;2022-09-16T06:26:37;14.86;48.76
73568;SHT30;61847;54.994;73.310;2022-09-16T06:29:05;14.86;49.31
73568;SHT30;61847;54.994;73.310;2022-09-16T06:31:33;14.82;49.34
73568;SHT30;61847;54.994;73.310;2022-09-16T06:33:59;14.77;49.37
73568;SHT30;61847;54.994;73.310;2022-09-16T06:36:28;14.87;49.23
73568;SHT30;61847;54.994;73.310;2022-09-16T06:38:55;15.00;48.58
73568;SHT30;61847;54.994;73.310;2022-09-16T06:41:22;15.10;48.28
73568;SHT30;61847;54.994;73.310;2022-09-16T06:43:49;15.11;48.56
73568;SHT30;61847;54.994;73.310;2022-09-16T06:46:25;15.07;47.96
73568;SHT30;61847;54.994;73.310;2022-09-16T06:49:01;15.14;48.35
73568;SHT30;61847;54.994;73.310;2022-09-16T06:51:30;15.26;48.49
73568;SHT30;61847;54.994;73.310;2022-09-16T06:54:01;15.28;47.02
73568;SHT30;61847;54.994;73.310;2022-09-16T06:56:28;15.28;47.81
73568;SHT30;61847;54.994;73.310;2022-09-16T06:58:54;15.27;47.37
73568;SHT30;61847;54.994;73.310;2022-09-16T07:01:27;15.28;47.75
73568;SHT30;61847;54.994;73.310;2022-09-16T07:03:55;15.48;46.91
73568;SHT30;61847;54.994;73.310;2022-09-16T07:06:26;15.61;46.93
73568;SHT30;61847;54.994;73.310;2022-09-16T07:08:53;15.54;47.55
73568;SHT30;61847;54.994;73.310;2022-09-16T07:11:21;15.66;46.84
73568;SHT30;61847;54.994;73.310;2022-09-16T07:13:50;15.62;46.97
73568;SHT30;61847;54.994;73.310;2022-09-16T07:16:24;15.65;47.02
73568;SHT30;61847;54.994;73.310;2022-09-16T07:18:56;15.59;46.84
73568;SHT30;61847;54.994;73.310;2022-09-16T07:21:25;15.57;47.09
73568;SHT30;61847;54.994;73.310;2022-09-16T07:23:59;15.59;47.11
73568;SHT30;61847;54.994;73.310;2022-09-16T07:26:28;15.73;46.68
73568;SHT30;61847;54.994;73.310;2022-09-16T07:29:02;15.82;45.99
73568;SHT30;61847;54.994;73.310;2022-09-16T07:31:31;15.83;46.00
73568;SHT30;61847;54.994;73.310;2022-09-16T07:33:58;15.79;46.31
73568;SHT30;61847;54.994;73.310;2022-09-16T07:36:28;15.85;46.36
73568;SHT30;61847;54.994;73.310;2022-09-16T07:38:56;15.88;46.08
73568;SHT30;61847;54.994;73.310;2022-09-16T07:41:26;15.86;45.28
73568;SHT30;61847;54.994;73.310;2022-09-16T07:43:54;15.88;45.30
73568;SHT30;61847;54.994;73.310;2022-09-16T07:46:21;15.90;46.36
73568;SHT30;61847;54.994;73.310;2022-09-16T07:48:48;15.90;46.38
73568;SHT30;61847;54.994;73.310;2022-09-16T07:51:20;16.03;45.02
73568;SHT30;61847;54.994;73.310;2022-09-16T07:53:48;16.06;45.30
73568;SHT30;61847;54.994;73.310;2022-09-16T07:56:20;16.10;45.67
73568;SHT30;61847;54.994;73.310;2022-09-16T07:58:48;16.17;44.90
73568;SHT30;61847;54.994;73.310;2022-09-16T08:01:15;16.20;45.10
73568;SHT30;61847;54.994;73.310;2022-09-16T08:03:52;16.21;44.93
73568;SHT30;61847;54.994;73.310;2022-09-16T08:06:20;16.20;44.87
73568;SHT30;61847;54.994;73.310;2022-09-16T08:08:47;16.18;45.63
73568;SHT30;61847;54.994;73.310;2022-09-16T08:11:17;16.23;44.16
73568;SHT30;61847;54.994;73.310;2022-09-16T08:13:44;16.24;44.34
73568;SHT30;61847;54.994;73.310;2022-09-16T08:16:13;16.24;45.24
73568;SHT30;61847;54.994;73.310;2022-09-16T08:18:40;16.27;45.56
73568;SHT30;61847;54.994;73.310;2022-09-16T08:21:12;16.21;45.88
73568;SHT30;61847;54.994;73.310;2022-09-16T08:23:39;16.16;45.74
73568;SHT30;61847;54.994;73.310;2022-09-16T08:26:06;16.12;45.56
73568;SHT30;61847;54.994;73.310;2022-09-16T08:28:37;16.13;45.92
73568;SHT30;61847;54.994;73.310;2022-09-16T08:31:04;16.18;43.76
73568;SHT30;61847;54.994;73.310;2022-09-16T08:33:31;16.27;43.59
73568;SHT30;61847;54.994;73.310;2022-09-16T08:38:31;16.47;43.84
73568;SHT30;61847;54.994;73.310;2022-09-16T08:49:40;16.78;42.95
73568;SHT30;61847;54.994;73.310;2022-09-16T08:52:30;16.88;41.28
73568;SHT30;61847;54.994;73.310;2022-09-16T08:55:28;16.85;41.85
73568;SHT30;61847;54.994;73.310;2022-09-16T09:00:28;16.88;41.99
73568;SHT30;61847;54.994;73.310;2022-09-16T09:03:17;17.06;41.90
73568;SHT30;61847;54.994;73.310;2022-09-16T09:08:16;16.95;43.02
73568;SHT30;61847;54.994;73.310;2022-09-16T09:10:51;17.06;41.93
73568;SHT30;61847;54.994;73.310;2022-09-16T09:24:36;17.81;40.96
73568;SHT30;61847;54.994;73.310;2022-09-16T09:30:19;18.08;40.60
73568;SHT30;61847;54.994;73.310;2022-09-16T09:38:19;17.92;40.40
73568;SHT30;61847;54.994;73.310;2022-09-16T09:40:57;17.95;41.71
73568;SHT30;61847;54.994;73.310;2022-09-16T09:43:46;17.80;40.82
73568;SHT30;61847;54.994;73.310;2022-09-16T09:46:32;17.64;41.99
73568;SHT30;61847;54.994;73.310;2022-09-16T09:49:15;17.59;41.50
73568;SHT30;61847;54.994;73.310;2022-09-16T09:54:29;17.67;42.15
73568;SHT30;61847;54.994;73.310;2022-09-16T09:57:02;17.53;41.05
73568;SHT30;61847;54.994;73.310;2022-09-16T09:59:38;17.41;41.04
73568;SHT30;61847;54.994;73.310;2022-09-16T10:02:15;17.30;42.24
73568;SHT30;61847;54.994;73.310;2022-09-16T10:04:42;17.22;42.10
73568;SHT30;61847;54.994;73.310;2022-09-16T10:07:11;17.15;42.71
73568;SHT30;61847;54.994;73.310;2022-09-16T10:09:58;17.02;42.47
73568;SHT30;61847;54.994;73.310;2022-09-16T10:12:33;16.92;42.76
73568;SHT30;61847;54.994;73.310;2022-09-16T10:15:00;16.92;43.01
73568;SHT30;61847;54.994;73.310;2022-09-16T10:17:36;16.98;42.29
73568;SHT30;61847;54.994;73.310;2022-09-16T10:20:29;16.93;43.86
73568;SHT30;61847;54.994;73.310;2022-09-16T10:23:10;16.91;42.42
73568;SHT30;61847;54.994;73.310;2022-09-16T10:25:46;17.16;42.49
73568;SHT30;61847;54.994;73.310;2022-09-16T10:28:22;17.36;42.61
73568;SHT30;61847;54.994;73.310;2022-09-16T10:30:52;17.64;42.54
73568;SHT30;61847;54.994;73.310;2022-09-16T10:33:27;17.82;41.79
73568;SHT30;61847;54.994;73.310;2022-09-16T10:35:56;18.01;41.16
73568;SHT30;61847;54.994;73.310;2022-09-16T10:38:38;18.15;41.33
73568;SHT30;61847;54.994;73.310;2022-09-16T10:41:24;18.30;41.77
73568;SHT30;61847;54.994;73.310;2022-09-16T10:44:05;18.43;40.46
73568;SHT30;61847;54.994;73.310;2022-09-16T10:46:37;18.43;39.79
73568;SHT30;61847;54.994;73.310;2022-09-16T10:49:11;18.46;39.08
73568;SHT30;61847;54.994;73.310;2022-09-16T10:51:37;18.39;40.12
73568;SHT30;61847;54.994;73.310;2022-09-16T10:54:04;18.42;39.85
73568;SHT30;61847;54.994;73.310;2022-09-16T10:56:33;18.35;40.76
73568;SHT30;61847;54.994;73.310;2022-09-16T10:59:12;18.40;40.08
73568;SHT30;61847;54.994;73.310;2022-09-16T11:15:00;18.25;41.01
73568;SHT30;61847;54.994;73.310;2022-09-16T11:17:40;18.18;41.50
73568;SHT30;61847;54.994;73.310;2022-09-16T11:34:41;17.78;40.08
73568;SHT30;61847;54.994;73.310;2022-09-16T11:37:21;17.74;40.37
73568;SHT30;61847;54.994;73.310;2022-09-16T11:48:59;17.39;41.32
73568;SHT30;61847;54.994;73.310;2022-09-16T11:54:57;17.22;41.92
73568;SHT30;61847;54.994;73.310;2022-09-16T11:57:30;17.19;41.37
73568;SHT30;61847;54.994;73.310;2022-09-16T12:00:00;17.09;41.75
73568;SHT30;61847;54.994;73.310;2022-09-16T12:05:29;17.12;41.49
73568;SHT30;61847;54.994;73.310;2022-09-16T12:13:43;16.99;41.31
73568;SHT30;61847;54.994;73.310;2022-09-16T12:16:14;16.95;41.39
73568;SHT30;61847;54.994;73.310;2022-09-16T12:18:50;16.89;41.14
73568;SHT30;61847;54.994;73.310;2022-09-16T12:30:01;16.67;42.71
73568;SHT30;61847;54.994;73.310;2022-09-16T12:32:39;16.64;42.85
73568;SHT30;61847;54.994;73.310;2022-09-16T12:35:17;16.58;43.14
73568;SHT30;61847;54.994;73.310;2022-09-16T12:37:58;16.50;43.38
73568;SHT30;61847;54.994;73.310;2022-09-16T12:40:28;16.50;43.40
73568;SHT30;61847;54.994;73.310;2022-09-16T12:55:07;16.21;43.15
73568;SHT30;61847;54.994;73.310;2022-09-16T13:03:21;16.05;43.06
73568;SHT30;61847;54.994;73.310;2022-09-16T13:05:54;16.03;43.07
73568;SHT30;61847;54.994;73.310;2022-09-16T13:08:29;15.99;43.04
73568;SHT30;61847;54.994;73.310;2022-09-16T13:11:04;15.95;43.20
73568;SHT30;61847;54.994;73.310;2022-09-16T13:13:46;15.92;43.39
73568;SHT30;61847;54.994;73.310;2022-09-16T13:16:35;15.89;43.83
73568;SHT30;61847;54.994;73.310;2022-09-16T13:19:53;15.85;43.94
73568;SHT30;61847;54.994;73.310;2022-09-16T13:24:54;15.77;43.84
73568;SHT30;61847;54.994;73.310;2022-09-16T13:27:32;15.71;43.86
73568;SHT30;61847;54.994;73.310;2022-09-16T13:37:50;15.57;44.29
73568;SHT30;61847;54.994;73.310;2022-09-16T13:40:28;15.52;44.62
73568;SHT30;61847;54.994;73.310;2022-09-16T13:43:12;15.50;44.95
73568;SHT30;61847;54.994;73.310;2022-09-16T13:45:44;15.42;44.82
73568;SHT30;61847;54.994;73.310;2022-09-16T13:48:15;15.41;45.04
73568;SHT30;61847;54.994;73.310;2022-09-16T13:50:58;15.37;45.11
73568;SHT30;61847;54.994;73.310;2022-09-16T13:53:30;15.30;45.23
73568;SHT30;61847;54.994;73.310;2022-09-16T13:59:35;15.26;46.04
73568;SHT30;61847;54.994;73.310;2022-09-16T14:08:06;15.13;45.86
73568;SHT30;61847;54.994;73.310;2022-09-16T14:13:18;15.04;46.10
73568;SHT30;61847;54.994;73.310;2022-09-16T14:15:56;15.04;46.23
73568;SHT30;61847;54.994;73.310;2022-09-16T14:18:32;15.00;46.26
73568;SHT30;61847;54.994;73.310;2022-09-16T14:21:14;14.97;46.53
73568;SHT30;61847;54.994;73.310;2022-09-16T14:23:41;14.92;46.78
73568;SHT30;61847;54.994;73.310;2022-09-16T14:26:12;14.89;46.63
73568;SHT30;61847;54.994;73.310;2022-09-16T14:28:39;14.86;46.62
73568;SHT30;61847;54.994;73.310;2022-09-16T14:31:18;14.86;46.65
73568;SHT30;61847;54.994;73.310;2022-09-16T14:33:54;14.82;46.69
73568;SHT30;61847;54.994;73.310;2022-09-16T14:36:33;14.80;47.30
73568;SHT30;61847;54.994;73.310;2022-09-16T14:41:49;14.71;47.06
73568;SHT30;61847;54.994;73.310;2022-09-16T14:44:30;14.66;47.56
73568;SHT30;61847;54.994;73.310;2022-09-16T14:49:27;14.59;48.48
73568;SHT30;61847;54.994;73.310;2022-09-16T14:51:56;14.55;49.07
73568;SHT30;61847;54.994;73.310;2022-09-16T14:54:30;14.49;48.75
73568;SHT30;61847;54.994;73.310;2022-09-16T14:57:05;14.48;48.74
73568;SHT30;61847;54.994;73.310;2022-09-16T14:59:37;14.38;48.63
73568;SHT30;61847;54.994;73.310;2022-09-16T15:04:56;14.35;49.12
73568;SHT30;61847;54.994;73.310;2022-09-16T15:07:33;14.29;49.36
73568;SHT30;61847;54.994;73.310;2022-09-16T15:10:28;14.25;49.46
73568;SHT30;61847;54.994;73.310;2022-09-16T15:13:03;14.20;49.90
73568;SHT30;61847;54.994;73.310;2022-09-16T15:15:31;14.20;49.15
73568;SHT30;61847;54.994;73.310;2022-09-16T15:18:05;14.20;49.22
73568;SHT30;61847;54.994;73.310;2022-09-16T15:20:38;14.14;49.24
73568;SHT30;61847;54.994;73.310;2022-09-16T15:23:19;14.14;49.08
73568;SHT30;61847;54.994;73.310;2022-09-16T15:25:56;14.10;49.32
73568;SHT30;61847;54.994;73.310;2022-09-16T15:28:23;14.06;49.39
73568;SHT30;61847;54.994;73.310;2022-09-16T15:30:55;14.04;48.94
73568;SHT30;61847;54.994;73.310;2022-09-16T15:33:32;14.03;48.98
73568;SHT30;61847;54.994;73.310;2022-09-16T15:36:04;13.98;49.23
73568;SHT30;61847;54.994;73.310;2022-09-16T15:38:32;13.96;50.23
73568;SHT30;61847;54.994;73.310;2022-09-16T15:41:05;13.93;49.88
73568;SHT30;61847;54.994;73.310;2022-09-16T15:43:41;13.91;49.53
73568;SHT30;61847;54.994;73.310;2022-09-16T15:46:19;13.90;49.37
73568;SHT30;61847;54.994;73.310;2022-09-16T15:48:50;13.86;49.67
73568;SHT30;61847;54.994;73.310;2022-09-16T15:51:36;13.84;50.53
73568;SHT30;61847;54.994;73.310;2022-09-16T15:54:30;13.80;50.32
73568;SHT30;61847;54.994;73.310;2022-09-16T15:57:07;13.76;50.10
73568;SHT30;61847;54.994;73.310;2022-09-16T15:59:37;13.74;49.63
73568;SHT30;61847;54.994;73.310;2022-09-16T16:02:34;13.77;49.83
73568;SHT30;61847;54.994;73.310;2022-09-16T16:05:07;13.73;49.41
73568;SHT30;61847;54.994;73.310;2022-09-16T16:07:52;13.71;49.22
73568;SHT30;61847;54.994;73.310;2022-09-16T16:10:27;13.70;48.93
73568;SHT30;61847;54.994;73.310;2022-09-16T16:13:00;13.69;49.02
73568;SHT30;61847;54.994;73.310;2022-09-16T16:15:38;13.70;48.89
73568;SHT30;61847;54.994;73.310;2022-09-16T16:18:07;13.66;49.02
73568;SHT30;61847;54.994;73.310;2022-09-16T16:20:35;13.65;49.33
73568;SHT30;61847;54.994;73.310;2022-09-16T16:23:12;13.59;49.62
73568;SHT30;61847;54.994;73.310;2022-09-16T16:25:47;13.59;49.99
73568;SHT30;61847;54.994;73.310;2022-09-16T16:28:19;13.50;50.38
73568;SHT30;61847;54.994;73.310;2022-09-16T16:31:27;13.45;50.69
73568;SHT30;61847;54.994;73.310;2022-09-16T16:33:53;13.41;50.19
73568;SHT30;61847;54.994;73.310;2022-09-16T16:36:29;13.38;50.15
73568;SHT30;61847;54.994;73.310;2022-09-16T16:39:06;13.36;49.82
73568;SHT30;61847;54.994;73.310;2022-09-16T16:41:32;13.35;49.70
73568;SHT30;61847;54.994;73.310;2022-09-16T16:44:03;13.35;49.50
73568;SHT30;61847;54.994;73.310;2022-09-16T16:46:31;13.32;49.36
73568;SHT30;61847;54.994;73.310;2022-09-16T16:48:57;13.32;49.61
73568;SHT30;61847;54.994;73.310;2022-09-16T16:51:33;13.29;49.75
73568;SHT30;61847;54.994;73.310;2022-09-16T16:54:12;13.28;49.53
73568;SHT30;61847;54.994;73.310;2022-09-16T16:56:39;13.26;49.27
73568;SHT30;61847;54.994;73.310;2022-09-16T16:59:10;13.25;49.37
73568;SHT30;61847;54.994;73.310;2022-09-16T17:01:37;13.23;49.32
73568;SHT30;61847;54.994;73.310;2022-09-16T17:04:13;13.18;49.41
73568;SHT30;61847;54.994;73.310;2022-09-16T17:06:40;13.18;49.41
73568;SHT30;61847;54.994;73.310;2022-09-16T17:09:16;13.14;49.42
73568;SHT30;61847;54.994;73.310;2022-09-16T17:11:57;13.15;49.62
73568;SHT30;61847;54.994;73.310;2022-09-16T17:14:29;13.11;49.64
73568;SHT30;61847;54.994;73.310;2022-09-16T17:17:03;13.07;49.64
73568;SHT30;61847;54.994;73.310;2022-09-16T17:19:37;13.04;51.17
73568;SHT30;61847;54.994;73.310;2022-09-16T17:22:03;13.01;50.51
73568;SHT30;61847;54.994;73.310;2022-09-16T17:24:30;12.94;50.09
73568;SHT30;61847;54.994;73.310;2022-09-16T17:26:56;12.97;49.85
73568;SHT30;61847;54.994;73.310;2022-09-16T17:29:24;12.94;49.82
73568;SHT30;61847;54.994;73.310;2022-09-16T17:31:53;12.93;49.65
73568;SHT30;61847;54.994;73.310;2022-09-16T17:34:21;12.91;49.71
73568;SHT30;61847;54.994;73.310;2022-09-16T17:36:57;12.90;49.64
73568;SHT30;61847;54.994;73.310;2022-09-16T17:39:24;12.91;50.32
73568;SHT30;61847;54.994;73.310;2022-09-16T17:41:51;12.87;49.78
73568;SHT30;61847;54.994;73.310;2022-09-16T17:44:18;12.85;49.69
73568;SHT30;61847;54.994;73.310;2022-09-16T17:46:45;12.84;49.56
73568;SHT30;61847;54.994;73.310;2022-09-16T17:49:15;12.80;50.00
73568;SHT30;61847;54.994;73.310;2022-09-16T17:51:42;12.77;50.01
73568;SHT30;61847;54.994;73.310;2022-09-16T17:54:09;12.77;49.79
73568;SHT30;61847;54.994;73.310;2022-09-16T17:56:41;12.74;49.83
73568;SHT30;61847;54.994;73.310;2022-09-16T17:59:08;12.72;49.79
73568;SHT30;61847;54.994;73.310;2022-09-16T18:01:45;12.67;49.98
73568;SHT30;61847;54.994;73.310;2022-09-16T18:04:11;12.64;49.82
73568;SHT30;61847;54.994;73.310;2022-09-16T18:06:44;12.61;50.42
73568;SHT30;61847;54.994;73.310;2022-09-16T18:09:13;12.61;49.93
73568;SHT30;61847;54.994;73.310;2022-09-16T18:11:41;12.61;49.79
73568;SHT30;61847;54.994;73.310;2022-09-16T18:14:09;12.59;49.80
73568;SHT30;61847;54.994;73.310;2022-09-16T18:16:36;12.54;49.45
73568;SHT30;61847;54.994;73.310;2022-09-16T18:19:12;12.57;49.40
73568;SHT30;61847;54.994;73.310;2022-09-16T18:21:38;12.56;49.31
73568;SHT30;61847;54.994;73.310;2022-09-16T18:24:05;12.53;49.33
73568;SHT30;61847;54.994;73.310;2022-09-16T18:26:35;12.52;49.40
73568;SHT30;61847;54.994;73.310;2022-09-16T18:29:03;12.49;49.35
73568;SHT30;61847;54.994;73.310;2022-09-16T18:31:31;12.46;49.31
73568;SHT30;61847;54.994;73.310;2022-09-16T18:33:57;12.45;49.59
73568;SHT30;61847;54.994;73.310;2022-09-16T18:36:25;12.43;49.54
73568;SHT30;61847;54.994;73.310;2022-09-16T18:38:53;12.39;50.25
73568;SHT30;61847;54.994;73.310;2022-09-16T18:41:27;12.37;49.78
73568;SHT30;61847;54.994;73.310;2022-09-16T18:44:19;12.35;49.71
73568;SHT30;61847;54.994;73.310;2022-09-16T18:46:51;12.30;49.89
73568;SHT30;61847;54.994;73.310;2022-09-16T18:49:18;12.28;49.84
73568;SHT30;61847;54.994;73.310;2022-09-16T18:51:49;12.26;49.91
73568;SHT30;61847;54.994;73.310;2022-09-16T18:54:18;12.25;49.84
73568;SHT30;61847;54.994;73.310;2022-09-16T18:56:49;12.25;49.80
73568;SHT30;61847;54.994;73.310;2022-09-16T18:59:17;12.22;49.78
73568;SHT30;61847;54.994;73.310;2022-09-16T19:01:46;12.19;49.69
73568;SHT30;61847;54.994;73.310;2022-09-16T19:04:17;12.18;49.87